sensor_id;sensor_type;location;lat;lon;timestamp;pressure;altitude;pressure_sealevel;temperature;humidity
38880;BME280;25887;30.194;-97.880;2023-05-29T00:01:40;98265.06;;;31.28;39.38
38880;BME280;25887;30.194;-97.880;2023-05-29T00:04:06;98263.66;;;31.24;39.05
38880;BME280;25887;30.194;-97.880;2023-05-29T00:06:32;98267.50;;;31.20;39.23
38880;BME280;25887;30.194;-97.880;2023-05-29T00:08:59;98263.59;;;31.14;39.29
38880;BME280;25887;30.194;-97.880;2023-05-29T00:11:25;98266.63;;;31.10;39.16
38880;BME280;25887;30.194;-97.880;2023-05-29T00:13:51;98261.84;;;31.03;39.52
38880;BME280;25887;30.194;-97.880;2023-05-29T00:16:17;98259.47;;;31.00;39.41
38880;BME280;25887;30.194;-97.880;2023-05-29T00:18:43;98265.97;;;30.96;39.37
38880;BME280;25887;30.194;-97.880;2023-05-29T00:21:12;98266.25;;;30.93;39.58
38880;BME280;25887;30.194;-97.880;2023-05-29T00:23:39;98267.47;;;30.89;39.65
38880;BME280;25887;30.194;-97.880;2023-05-29T00:26:06;98273.88;;;30.87;39.97
38880;BME280;25887;30.194;-97.880;2023-05-29T00:28:32;98271.38;;;30.85;39.73
38880;BME280;25887;30.194;-97.880;2023-05-29T00:30:59;98283.19;;;30.81;39.70
38880;BME280;25887;30.194;-97.880;2023-05-29T00:33:25;98286.13;;;30.78;40.04
38880;BME280;25887;30.194;-97.880;2023-05-29T00:35:52;98285.41;;;30.76;39.99
38880;BME280;25887;30.194;-97.880;2023-05-29T00:38:18;98284.69;;;30.74;39.83
38880;BME280;25887;30.194;-97.880;2023-05-29T00:40:44;98292.91;;;30.71;40.17
38880;BME280;25887;30.194;-97.880;2023-05-29T00:43:10;98303.78;;;30.68;40.02
38880;BME280;25887;30.194;-97.880;2023-05-29T00:45:36;98304.00;;;30.65;40.04
38880;BME280;25887;30.194;-97.880;2023-05-29T00:48:04;98303.28;;;30.63;40.13
38880;BME280;25887;30.194;-97.880;2023-05-29T00:50:30;98304.63;;;30.57;40.31
38880;BME280;25887;30.194;-97.880;2023-05-29T00:52:59;98302.38;;;30.52;40.33
38880;BME280;25887;30.194;-97.880;2023-05-29T00:55:28;98295.06;;;30.45;40.26
38880;BME280;25887;30.194;-97.880;2023-05-29T00:57:55;98305.06;;;30.41;40.22
38880;BME280;25887;30.194;-97.880;2023-05-29T01:00:38;98310.63;;;30.38;40.50
38880;BME280;25887;30.194;-97.880;2023-05-29T01:03:06;98309.19;;;30.34;40.33
38880;BME280;25887;30.194;-97.880;2023-05-29T01:05:34;98312.22;;;30.30;40.64
38880;BME280;25887;30.194;-97.880;2023-05-29T01:08:04;98308.97;;;30.26;40.71
38880;BME280;25887;30.194;-97.880;2023-05-29T01:10:30;98317.19;;;30.23;41.25
38880;BME280;25887;30.194;-97.880;2023-05-29T01:13:19;98305.97;;;30.19;41.01
38880;BME280;25887;30.194;-97.880;2023-05-29T01:21:06;98315.25;;;30.03;41.39
38880;BME280;25887;30.194;-97.880;2023-05-29T01:24:02;98315.53;;;30.00;41.51
38880;BME280;25887;30.194;-97.880;2023-05-29T01:29:07;98325.28;;;29.88;41.72
38880;BME280;25887;30.194;-97.880;2023-05-29T01:31:34;98325.66;;;29.83;41.88
38880;BME280;25887;30.194;-97.880;2023-05-29T01:34:03;98333.97;;;29.79;41.98
38880;BME280;25887;30.194;-97.880;2023-05-29T01:36:29;98334.22;;;29.76;41.79
38880;BME280;25887;30.194;-97.880;2023-05-29T01:38:57;98328.44;;;29.71;42.04
38880;BME280;25887;30.194;-97.880;2023-05-29T01:41:24;98319.91;;;29.67;42.15
38880;BME280;25887;30.194;-97.880;2023-05-29T01:43:52;98324.56;;;29.63;42.16
38880;BME280;25887;30.194;-97.880;2023-05-29T01:46:20;98322.31;;;29.59;42.09
38880;BME280;25887;30.194;-97.880;2023-05-29T01:48:46;98322.66;;;29.54;42.04
38880;BME280;25887;30.194;-97.880;2023-05-29T01:51:13;98315.09;;;29.50;42.50
38880;BME280;25887;30.194;-97.880;2023-05-29T01:53:40;98316.13;;;29.47;42.67
38880;BME280;25887;30.194;-97.880;2023-05-29T01:56:07;98326.25;;;29.42;42.72
38880;BME280;25887;30.194;-97.880;2023-05-29T01:58:35;98323.94;;;29.37;42.91
38880;BME280;25887;30.194;-97.880;2023-05-29T02:01:05;98326.09;;;29.32;42.65
38880;BME280;25887;30.194;-97.880;2023-05-29T02:03:32;98339.72;;;29.28;43.05
38880;BME280;25887;30.194;-97.880;2023-05-29T02:05:59;98333.78;;;29.24;43.19
38880;BME280;25887;30.194;-97.880;2023-05-29T02:08:26;98328.13;;;29.18;42.88
38880;BME280;25887;30.194;-97.880;2023-05-29T02:10:52;98327.53;;;29.14;43.22
38880;BME280;25887;30.194;-97.880;2023-05-29T02:13:19;98331.34;;;29.10;43.00
38880;BME280;25887;30.194;-97.880;2023-05-29T02:15:46;98331.59;;;29.07;43.00
38880;BME280;25887;30.194;-97.880;2023-05-29T02:18:16;98331.94;;;29.02;43.14
38880;BME280;25887;30.194;-97.880;2023-05-29T02:20:48;98333.16;;;28.98;43.36
38880;BME280;25887;30.194;-97.880;2023-05-29T02:23:14;98334.31;;;28.94;43.64
38880;BME280;25887;30.194;-97.880;2023-05-29T02:25:41;98326.53;;;28.93;43.72
38880;BME280;25887;30.194;-97.880;2023-05-29T02:28:09;98327.69;;;28.89;43.70
38880;BME280;25887;30.194;-97.880;2023-05-29T02:30:35;98336.81;;;28.84;43.46
38880;BME280;25887;30.194;-97.880;2023-05-29T02:33:02;98334.41;;;28.81;43.52
38880;BME280;25887;30.194;-97.880;2023-05-29T02:35:28;98342.53;;;28.78;44.01
38880;BME280;25887;30.194;-97.880;2023-05-29T02:37:54;98348.06;;;28.75;43.71
38880;BME280;25887;30.194;-97.880;2023-05-29T02:40:20;98350.13;;;28.72;43.84
38880;BME280;25887;30.194;-97.880;2023-05-29T02:42:47;98350.44;;;28.67;43.87
38880;BME280;25887;30.194;-97.880;2023-05-29T02:45:13;98352.56;;;28.62;44.12
38880;BME280;25887;30.194;-97.880;2023-05-29T02:47:39;98344.03;;;28.58;44.29
38880;BME280;25887;30.194;-97.880;2023-05-29T02:50:06;98348.69;;;28.55;44.46
38880;BME280;25887;30.194;-97.880;2023-05-29T02:52:35;98345.47;;;28.51;44.24
38880;BME280;25887;30.194;-97.880;2023-05-29T02:55:05;98359.75;;;28.49;44.19
38880;BME280;25887;30.194;-97.880;2023-05-29T02:57:31;98369.69;;;28.45;44.51
38880;BME280;25887;30.194;-97.880;2023-05-29T02:59:58;98372.56;;;28.42;44.59
38880;BME280;25887;30.194;-97.880;2023-05-29T03:02:24;98371.94;;;28.39;44.36
38880;BME280;25887;30.194;-97.880;2023-05-29T03:04:51;98376.59;;;28.35;44.85
38880;BME280;25887;30.194;-97.880;2023-05-29T03:07:17;98373.31;;;28.31;45.09
38880;BME280;25887;30.194;-97.880;2023-05-29T03:09:44;98376.16;;;28.28;44.56
38880;BME280;25887;30.194;-97.880;2023-05-29T03:12:10;98374.59;;;28.26;44.96
38880;BME280;25887;30.194;-97.880;2023-05-29T03:14:37;98368.69;;;28.22;44.75
38880;BME280;25887;30.194;-97.880;2023-05-29T03:17:07;98380.44;;;28.18;45.19
38880;BME280;25887;30.194;-97.880;2023-05-29T03:19:33;98372.00;;;28.13;45.13
38880;BME280;25887;30.194;-97.880;2023-05-29T03:21:59;98382.78;;;28.10;45.16
38880;BME280;25887;30.194;-97.880;2023-05-29T03:24:28;98370.84;;;28.04;45.33
38880;BME280;25887;30.194;-97.880;2023-05-29T03:26:54;98374.47;;;28.03;44.96
38880;BME280;25887;30.194;-97.880;2023-05-29T03:29:22;98368.75;;;27.97;45.53
38880;BME280;25887;30.194;-97.880;2023-05-29T03:31:48;98369.00;;;27.94;45.15
38880;BME280;25887;30.194;-97.880;2023-05-29T03:34:14;98364.97;;;27.88;45.55
38880;BME280;25887;30.194;-97.880;2023-05-29T03:36:40;98377.53;;;27.85;45.32
38880;BME280;25887;30.194;-97.880;2023-05-29T03:39:06;98373.31;;;27.82;45.67
38880;BME280;25887;30.194;-97.880;2023-05-29T03:41:33;98373.63;;;27.77;45.73
38880;BME280;25887;30.194;-97.880;2023-05-29T03:43:59;98394.03;;;27.75;45.88
38880;BME280;25887;30.194;-97.880;2023-05-29T03:46:25;98390.78;;;27.72;45.70
38880;BME280;25887;30.194;-97.880;2023-05-29T03:48:52;98392.78;;;27.68;46.11
38880;BME280;25887;30.194;-97.880;2023-05-29T03:51:19;98391.09;;;27.67;46.05
38880;BME280;25887;30.194;-97.880;2023-05-29T03:53:45;98397.50;;;27.63;45.99
38880;BME280;25887;30.194;-97.880;2023-05-29T03:56:11;98398.44;;;27.62;46.14
38880;BME280;25887;30.194;-97.880;2023-05-29T03:58:37;98399.50;;;27.60;45.83
38880;BME280;25887;30.194;-97.880;2023-05-29T04:01:04;98391.91;;;27.55;46.04
38880;BME280;25887;30.194;-97.880;2023-05-29T04:03:31;98400.75;;;27.54;46.46
38880;BME280;25887;30.194;-97.880;2023-05-29T04:05:58;98390.44;;;27.51;46.12
38880;BME280;25887;30.194;-97.880;2023-05-29T04:08:24;98400.13;;;27.51;46.17
38880;BME280;25887;30.194;-97.880;2023-05-29T04:10:51;98401.22;;;27.48;46.25
38880;BME280;25887;30.194;-97.880;2023-05-29T04:13:20;98400.56;;;27.44;46.69
38880;BME280;25887;30.194;-97.880;2023-05-29T04:15:46;98398.88;;;27.43;46.42
38880;BME280;25887;30.194;-97.880;2023-05-29T04:18:13;98389.38;;;27.41;46.50
38880;BME280;25887;30.194;-97.880;2023-05-29T04:20:39;98394.84;;;27.38;46.52
38880;BME280;25887;30.194;-97.880;2023-05-29T04:23:06;98387.25;;;27.33;47.04
38880;BME280;25887;30.194;-97.880;2023-05-29T04:25:32;98391.78;;;27.31;46.73
38880;BME280;25887;30.194;-97.880;2023-05-29T04:27:58;98388.53;;;27.28;46.89
38880;BME280;25887;30.194;-97.880;2023-05-29T04:30:28;98402.00;;;27.23;47.06
38880;BME280;25887;30.194;-97.880;2023-05-29T04:32:56;98390.72;;;27.21;47.40
38880;BME280;25887;30.194;-97.880;2023-05-29T04:35:23;98398.00;;;27.17;47.29
38880;BME280;25887;30.194;-97.880;2023-05-29T04:37:49;98400.84;;;27.14;47.06
38880;BME280;25887;30.194;-97.880;2023-05-29T04:40:16;98400.22;;;27.11;47.54
38880;BME280;25887;30.194;-97.880;2023-05-29T04:42:43;98393.38;;;27.08;47.64
38880;BME280;25887;30.194;-97.880;2023-05-29T04:45:11;98400.69;;;27.03;47.39
38880;BME280;25887;30.194;-97.880;2023-05-29T04:47:37;98406.16;;;27.00;47.46
38880;BME280;25887;30.194;-97.880;2023-05-29T04:50:13;98403.84;;;26.96;47.70
38880;BME280;25887;30.194;-97.880;2023-05-29T04:52:39;98397.06;;;26.91;47.52
38880;BME280;25887;30.194;-97.880;2023-05-29T04:55:06;98394.75;;;26.87;48.13
38880;BME280;25887;30.194;-97.880;2023-05-29T04:57:32;98393.13;;;26.84;48.09
38880;BME280;25887;30.194;-97.880;2023-05-29T04:59:58;98391.56;;;26.82;47.94
38880;BME280;25887;30.194;-97.880;2023-05-29T05:02:25;98397.06;;;26.79;48.06
38880;BME280;25887;30.194;-97.880;2023-05-29T05:04:51;98400.63;;;26.78;48.46
38880;BME280;25887;30.194;-97.880;2023-05-29T05:07:17;98398.91;;;26.77;48.28
38880;BME280;25887;30.194;-97.880;2023-05-29T05:09:43;98396.50;;;26.74;48.55
38880;BME280;25887;30.194;-97.880;2023-05-29T05:12:09;98394.69;;;26.74;48.25
38880;BME280;25887;30.194;-97.880;2023-05-29T05:14:35;98379.09;;;26.71;48.57
38880;BME280;25887;30.194;-97.880;2023-05-29T05:17:02;98387.13;;;26.70;48.53
38880;BME280;25887;30.194;-97.880;2023-05-29T05:19:28;98377.50;;;26.69;48.99
38880;BME280;25887;30.194;-97.880;2023-05-29T05:21:54;98386.47;;;26.66;48.91
38880;BME280;25887;30.194;-97.880;2023-05-29T05:24:22;98376.97;;;26.63;48.89
38880;BME280;25887;30.194;-97.880;2023-05-29T05:26:48;98379.78;;;26.60;48.87
38880;BME280;25887;30.194;-97.880;2023-05-29T05:29:15;98375.56;;;26.58;48.64
38880;BME280;25887;30.194;-97.880;2023-05-29T05:31:41;98375.69;;;26.56;49.02
38880;BME280;25887;30.194;-97.880;2023-05-29T05:34:07;98373.22;;;26.53;49.03
38880;BME280;25887;30.194;-97.880;2023-05-29T05:36:33;98367.22;;;26.51;48.91
38880;BME280;25887;30.194;-97.880;2023-05-29T05:39:00;98368.16;;;26.50;49.18
38880;BME280;25887;30.194;-97.880;2023-05-29T05:41:32;98361.22;;;26.49;49.27
38880;BME280;25887;30.194;-97.880;2023-05-29T05:43:58;98359.53;;;26.48;49.52
38880;BME280;25887;30.194;-97.880;2023-05-29T05:46:27;98360.38;;;26.49;49.46
38880;BME280;25887;30.194;-97.880;2023-05-29T05:48:53;98360.47;;;26.47;49.68
38880;BME280;25887;30.194;-97.880;2023-05-29T05:51:23;98351.81;;;26.45;49.32
38880;BME280;25887;30.194;-97.880;2023-05-29T05:53:49;98353.59;;;26.45;49.56
38880;BME280;25887;30.194;-97.880;2023-05-29T05:56:16;98349.28;;;26.44;49.42
38880;BME280;25887;30.194;-97.880;2023-05-29T05:58:42;98340.53;;;26.43;49.69
38880;BME280;25887;30.194;-97.880;2023-05-29T06:01:08;98354.53;;;26.44;49.70
38880;BME280;25887;30.194;-97.880;2023-05-29T06:03:35;98352.84;;;26.43;49.91
38880;BME280;25887;30.194;-97.880;2023-05-29T06:06:02;98345.78;;;26.43;49.76
38880;BME280;25887;30.194;-97.880;2023-05-29T06:08:29;98344.09;;;26.42;49.90
38880;BME280;25887;30.194;-97.880;2023-05-29T06:10:56;98343.25;;;26.42;50.12
38880;BME280;25887;30.194;-97.880;2023-05-29T06:13:22;98338.84;;;26.42;50.02
38880;BME280;25887;30.194;-97.880;2023-05-29T06:15:48;98332.84;;;26.40;50.15
38880;BME280;25887;30.194;-97.880;2023-05-29T06:18:14;98336.41;;;26.39;50.18
38880;BME280;25887;30.194;-97.880;2023-05-29T06:20:41;98332.03;;;26.38;50.51
38880;BME280;25887;30.194;-97.880;2023-05-29T06:23:07;98331.19;;;26.37;50.66
38880;BME280;25887;30.194;-97.880;2023-05-29T06:25:37;98335.63;;;26.37;50.41
38880;BME280;25887;30.194;-97.880;2023-05-29T06:28:04;98333.09;;;26.35;50.97
38880;BME280;25887;30.194;-97.880;2023-05-29T06:30:31;98333.19;;;26.34;50.48
38880;BME280;25887;30.194;-97.880;2023-05-29T06:32:58;98327.19;;;26.32;50.79
38880;BME280;25887;30.194;-97.880;2023-05-29T06:35:24;98331.50;;;26.33;50.56
38880;BME280;25887;30.194;-97.880;2023-05-29T06:37:50;98318.50;;;26.30;51.11
38880;BME280;25887;30.194;-97.880;2023-05-29T06:40:16;98328.13;;;26.31;50.76
38880;BME280;25887;30.194;-97.880;2023-05-29T06:42:45;98328.13;;;26.31;51.23
38880;BME280;25887;30.194;-97.880;2023-05-29T06:45:29;98328.97;;;26.31;50.94
38880;BME280;25887;30.194;-97.880;2023-05-29T06:47:56;98334.31;;;26.30;51.10
38880;BME280;25887;30.194;-97.880;2023-05-29T06:50:26;98334.31;;;26.30;51.26
38880;BME280;25887;30.194;-97.880;2023-05-29T06:52:52;98334.31;;;26.30;51.08
38880;BME280;25887;30.194;-97.880;2023-05-29T06:55:19;98340.34;;;26.32;51.51
38880;BME280;25887;30.194;-97.880;2023-05-29T06:57:47;98348.25;;;26.32;51.42
38880;BME280;25887;30.194;-97.880;2023-05-29T07:00:14;98345.63;;;26.32;51.40
38880;BME280;25887;30.194;-97.880;2023-05-29T07:02:40;98355.22;;;26.33;51.36
38880;BME280;25887;30.194;-97.880;2023-05-29T07:05:06;98365.75;;;26.33;51.61
38880;BME280;25887;30.194;-97.880;2023-05-29T07:07:33;98357.94;;;26.31;51.67
38880;BME280;25887;30.194;-97.880;2023-05-29T07:09:59;98362.38;;;26.31;51.65
38880;BME280;25887;30.194;-97.880;2023-05-29T07:12:26;98358.91;;;26.30;51.61
38880;BME280;25887;30.194;-97.880;2023-05-29T07:14:52;98348.44;;;26.29;51.84
38880;BME280;25887;30.194;-97.880;2023-05-29T07:17:18;98345.81;;;26.29;51.79
38880;BME280;25887;30.194;-97.880;2023-05-29T07:19:46;98353.81;;;26.27;51.92
38880;BME280;25887;30.194;-97.880;2023-05-29T07:22:15;98352.97;;;26.27;52.01
38880;BME280;25887;30.194;-97.880;2023-05-29T07:24:41;98346.13;;;26.24;51.75
38880;BME280;25887;30.194;-97.880;2023-05-29T07:27:08;98347.06;;;26.23;52.16
38880;BME280;25887;30.194;-97.880;2023-05-29T07:29:34;98340.97;;;26.23;52.03
38880;BME280;25887;30.194;-97.880;2023-05-29T07:32:01;98341.97;;;26.20;52.25
38880;BME280;25887;30.194;-97.880;2023-05-29T07:34:27;98338.59;;;26.18;52.15
38880;BME280;25887;30.194;-97.880;2023-05-29T07:37:06;98344.72;;;26.19;52.19
38880;BME280;25887;30.194;-97.880;2023-05-29T07:39:34;98347.56;;;26.16;52.15
38880;BME280;25887;30.194;-97.880;2023-05-29T07:42:01;98344.16;;;26.14;52.19
38880;BME280;25887;30.194;-97.880;2023-05-29T07:44:28;98338.88;;;26.14;52.30
38880;BME280;25887;30.194;-97.880;2023-05-29T07:46:54;98337.19;;;26.13;52.48
38880;BME280;25887;30.194;-97.880;2023-05-29T07:49:21;98339.00;;;26.12;52.56
38880;BME280;25887;30.194;-97.880;2023-05-29T07:51:47;98335.50;;;26.11;52.37
38880;BME280;25887;30.194;-97.880;2023-05-29T07:54:30;98333.81;;;26.10;52.46
38880;BME280;25887;30.194;-97.880;2023-05-29T07:56:58;98327.81;;;26.08;52.73
38880;BME280;25887;30.194;-97.880;2023-05-29T07:59:26;98339.31;;;26.07;52.50
38880;BME280;25887;30.194;-97.880;2023-05-29T08:01:52;98339.38;;;26.06;52.78
38880;BME280;25887;30.194;-97.880;2023-05-29T08:04:18;98329.06;;;26.03;52.71
38880;BME280;25887;30.194;-97.880;2023-05-29T08:06:45;98332.63;;;26.02;52.77
38880;BME280;25887;30.194;-97.880;2023-05-29T08:09:11;98331.06;;;25.99;52.86
38880;BME280;25887;30.194;-97.880;2023-05-29T08:11:38;98329.34;;;25.98;52.99
38880;BME280;25887;30.194;-97.880;2023-05-29T08:14:04;98331.31;;;25.95;53.18
38880;BME280;25887;30.194;-97.880;2023-05-29T08:16:31;98335.66;;;25.96;53.10
38880;BME280;25887;30.194;-97.880;2023-05-29T08:18:57;98336.59;;;25.95;52.96
38880;BME280;25887;30.194;-97.880;2023-05-29T08:21:24;98337.44;;;25.95;53.15
38880;BME280;25887;30.194;-97.880;2023-05-29T08:23:51;98334.06;;;25.93;53.04
38880;BME280;25887;30.194;-97.880;2023-05-29T08:26:17;98331.53;;;25.92;53.21
38880;BME280;25887;30.194;-97.880;2023-05-29T08:28:44;98333.41;;;25.90;53.17
38880;BME280;25887;30.194;-97.880;2023-05-29T08:31:10;98331.81;;;25.87;53.33
38880;BME280;25887;30.194;-97.880;2023-05-29T08:33:36;98329.19;;;25.87;53.23
38880;BME280;25887;30.194;-97.880;2023-05-29T08:36:02;98336.34;;;25.85;53.25
38880;BME280;25887;30.194;-97.880;2023-05-29T08:38:29;98341.59;;;25.85;53.43
38880;BME280;25887;30.194;-97.880;2023-05-29T08:40:57;98334.66;;;25.84;53.20
38880;BME280;25887;30.194;-97.880;2023-05-29T08:43:30;98332.94;;;25.83;53.65
38880;BME280;25887;30.194;-97.880;2023-05-29T08:45:59;98334.81;;;25.81;53.77
38880;BME280;25887;30.194;-97.880;2023-05-29T08:48:28;98334.81;;;25.81;53.91
38880;BME280;25887;30.194;-97.880;2023-05-29T08:50:56;98331.34;;;25.80;53.52
38880;BME280;25887;30.194;-97.880;2023-05-29T08:53:23;98326.19;;;25.79;53.93
38880;BME280;25887;30.194;-97.880;2023-05-29T08:56:23;98310.41;;;25.79;53.52
38880;BME280;25887;30.194;-97.880;2023-05-29T08:58:49;98312.28;;;25.77;53.88
38880;BME280;25887;30.194;-97.880;2023-05-29T09:01:18;98295.66;;;25.76;53.78
38880;BME280;25887;30.194;-97.880;2023-05-29T09:03:46;98287.81;;;25.75;53.72
38880;BME280;25887;30.194;-97.880;2023-05-29T09:06:13;98284.28;;;25.76;53.82
38880;BME280;25887;30.194;-97.880;2023-05-29T09:08:39;98289.53;;;25.76;53.83
38880;BME280;25887;30.194;-97.880;2023-05-29T09:11:06;98291.31;;;25.75;53.77
38880;BME280;25887;30.194;-97.880;2023-05-29T09:13:32;98292.25;;;25.74;53.82
38880;BME280;25887;30.194;-97.880;2023-05-29T09:15:59;98279.94;;;25.75;54.25
38880;BME280;25887;30.194;-97.880;2023-05-29T09:18:29;98277.31;;;25.75;54.22
38880;BME280;25887;30.194;-97.880;2023-05-29T09:20:57;98279.09;;;25.74;54.13
38880;BME280;25887;30.194;-97.880;2023-05-29T09:23:25;98281.72;;;25.74;54.36
38880;BME280;25887;30.194;-97.880;2023-05-29T09:25:53;98290.56;;;25.73;54.37
38880;BME280;25887;30.194;-97.880;2023-05-29T09:28:21;98284.56;;;25.71;54.37
38880;BME280;25887;30.194;-97.880;2023-05-29T09:30:49;98290.66;;;25.72;54.41
38880;BME280;25887;30.194;-97.880;2023-05-29T09:33:16;98292.47;;;25.71;54.55
38880;BME280;25887;30.194;-97.880;2023-05-29T09:35:48;98296.00;;;25.70;54.42
38880;BME280;25887;30.194;-97.880;2023-05-29T09:38:17;98296.94;;;25.69;54.70
38880;BME280;25887;30.194;-97.880;2023-05-29T09:40:44;98289.91;;;25.70;54.50
38880;BME280;25887;30.194;-97.880;2023-05-29T09:43:15;98293.47;;;25.69;54.69
38880;BME280;25887;30.194;-97.880;2023-05-29T09:45:47;98298.81;;;25.67;54.97
38880;BME280;25887;30.194;-97.880;2023-05-29T09:48:22;98304.84;;;25.69;54.90
38880;BME280;25887;30.194;-97.880;2023-05-29T09:50:49;98310.16;;;25.68;54.97
38880;BME280;25887;30.194;-97.880;2023-05-29T09:55:48;98313.00;;;25.65;55.16
38880;BME280;25887;30.194;-97.880;2023-05-29T09:58:19;98318.28;;;25.65;55.06
38880;BME280;25887;30.194;-97.880;2023-05-29T10:00:45;98322.78;;;25.63;55.26
38880;BME280;25887;30.194;-97.880;2023-05-29T10:03:13;98318.47;;;25.62;55.33
38880;BME280;25887;30.194;-97.880;2023-05-29T10:05:42;98313.22;;;25.62;55.26
38880;BME280;25887;30.194;-97.880;2023-05-29T10:08:14;98318.66;;;25.59;55.37
38880;BME280;25887;30.194;-97.880;2023-05-29T10:10:49;98323.91;;;25.59;55.51
38880;BME280;25887;30.194;-97.880;2023-05-29T10:13:18;98320.53;;;25.56;55.50
38880;BME280;25887;30.194;-97.880;2023-05-29T10:15:49;98320.75;;;25.53;55.79
38880;BME280;25887;30.194;-97.880;2023-05-29T10:18:27;98330.31;;;25.54;55.62
38880;BME280;25887;30.194;-97.880;2023-05-29T10:20:58;98332.94;;;25.54;55.53
38880;BME280;25887;30.194;-97.880;2023-05-29T10:23:28;98332.16;;;25.52;55.63
38880;BME280;25887;30.194;-97.880;2023-05-29T10:32:17;98339.22;;;25.52;55.78
38880;BME280;25887;30.194;-97.880;2023-05-29T10:37:52;98338.47;;;25.50;55.83
38880;BME280;25887;30.194;-97.880;2023-05-29T10:40:25;98329.00;;;25.47;56.00
38880;BME280;25887;30.194;-97.880;2023-05-29T10:42:52;98336.88;;;25.47;56.33
38880;BME280;25887;30.194;-97.880;2023-05-29T10:51:01;98330.69;;;25.48;56.16
38880;BME280;25887;30.194;-97.880;2023-05-29T10:53:31;98328.16;;;25.47;56.18
38880;BME280;25887;30.194;-97.880;2023-05-29T10:56:00;98324.84;;;25.43;56.30
38880;BME280;25887;30.194;-97.880;2023-05-29T10:58:28;98330.88;;;25.45;56.20
38880;BME280;25887;30.194;-97.880;2023-05-29T11:00:56;98329.09;;;25.46;56.29
38880;BME280;25887;30.194;-97.880;2023-05-29T11:03:34;98331.72;;;25.46;56.37
38880;BME280;25887;30.194;-97.880;2023-05-29T11:06:06;98339.63;;;25.46;56.27
38880;BME280;25887;30.194;-97.880;2023-05-29T11:08:46;98333.53;;;25.45;56.22
38880;BME280;25887;30.194;-97.880;2023-05-29T11:11:32;98329.09;;;25.46;56.28
38880;BME280;25887;30.194;-97.880;2023-05-29T11:14:06;98329.16;;;25.44;56.31
38880;BME280;25887;30.194;-97.880;2023-05-29T11:19:04;98347.56;;;25.44;56.47
38880;BME280;25887;30.194;-97.880;2023-05-29T11:24:25;98332.75;;;25.43;56.49
38880;BME280;25887;30.194;-97.880;2023-05-29T11:26:53;98330.22;;;25.42;56.68
38880;BME280;25887;30.194;-97.880;2023-05-29T11:29:27;98329.47;;;25.40;56.63
38880;BME280;25887;30.194;-97.880;2023-05-29T11:32:01;98340.84;;;25.40;56.56
38880;BME280;25887;30.194;-97.880;2023-05-29T11:34:32;98344.41;;;25.39;56.36
38880;BME280;25887;30.194;-97.880;2023-05-29T11:37:02;98347.97;;;25.38;56.60
38880;BME280;25887;30.194;-97.880;2023-05-29T11:39:29;98350.69;;;25.37;56.56
38880;BME280;25887;30.194;-97.880;2023-05-29T11:41:56;98345.41;;;25.37;56.66
38880;BME280;25887;30.194;-97.880;2023-05-29T11:44:25;98355.09;;;25.36;56.46
38880;BME280;25887;30.194;-97.880;2023-05-29T11:47:05;98359.50;;;25.36;56.54
38880;BME280;25887;30.194;-97.880;2023-05-29T11:49:34;98361.19;;;25.37;56.68
38880;BME280;25887;30.194;-97.880;2023-05-29T11:52:11;98358.56;;;25.37;56.71
38880;BME280;25887;30.194;-97.880;2023-05-29T11:54:37;98371.72;;;25.37;56.64
38880;BME280;25887;30.194;-97.880;2023-05-29T11:57:04;98376.22;;;25.35;56.67
38880;BME280;25887;30.194;-97.880;2023-05-29T11:59:33;98382.22;;;25.37;56.66
38880;BME280;25887;30.194;-97.880;2023-05-29T12:02:02;98387.59;;;25.35;56.96
38880;BME280;25887;30.194;-97.880;2023-05-29T12:04:29;98390.22;;;25.35;56.98
38880;BME280;25887;30.194;-97.880;2023-05-29T12:06:55;98392.00;;;25.35;56.82
38880;BME280;25887;30.194;-97.880;2023-05-29T12:09:28;98386.66;;;25.36;56.85
38880;BME280;25887;30.194;-97.880;2023-05-29T12:12:04;98390.13;;;25.37;56.70
38880;BME280;25887;30.194;-97.880;2023-05-29T12:14:30;98394.47;;;25.38;56.95
38880;BME280;25887;30.194;-97.880;2023-05-29T12:16:57;98397.00;;;25.39;56.85
38880;BME280;25887;30.194;-97.880;2023-05-29T12:19:23;98397.84;;;25.40;56.95
38880;BME280;25887;30.194;-97.880;2023-05-29T12:21:50;98394.28;;;25.41;57.02
38880;BME280;25887;30.194;-97.880;2023-05-29T12:24:18;98390.72;;;25.42;56.81
38880;BME280;25887;30.194;-97.880;2023-05-29T12:26:45;98394.94;;;25.44;57.11
38880;BME280;25887;30.194;-97.880;2023-05-29T12:29:15;98405.53;;;25.43;57.20
38880;BME280;25887;30.194;-97.880;2023-05-29T12:31:41;98402.91;;;25.43;56.98
38880;BME280;25887;30.194;-97.880;2023-05-29T12:34:16;98407.44;;;25.41;57.10
38880;BME280;25887;30.194;-97.880;2023-05-29T12:36:43;98417.94;;;25.41;57.22
38880;BME280;25887;30.194;-97.880;2023-05-29T12:39:10;98411.84;;;25.40;57.05
38880;BME280;25887;30.194;-97.880;2023-05-29T12:41:37;98417.22;;;25.39;57.26
38880;BME280;25887;30.194;-97.880;2023-05-29T12:44:06;98414.69;;;25.37;57.31
38880;BME280;25887;30.194;-97.880;2023-05-29T12:46:41;98411.94;;;25.39;57.03
38880;BME280;25887;30.194;-97.880;2023-05-29T12:49:16;98415.41;;;25.39;57.30
38880;BME280;25887;30.194;-97.880;2023-05-29T12:51:48;98409.31;;;25.39;57.29
38880;BME280;25887;30.194;-97.880;2023-05-29T12:54:15;98411.16;;;25.37;57.32
38880;BME280;25887;30.194;-97.880;2023-05-29T12:56:42;98405.84;;;25.38;57.27
38880;BME280;25887;30.194;-97.880;2023-05-29T12:59:09;98409.41;;;25.37;57.34
38880;BME280;25887;30.194;-97.880;2023-05-29T13:01:38;98410.25;;;25.38;57.52
38880;BME280;25887;30.194;-97.880;2023-05-29T13:04:05;98414.56;;;25.39;57.30
38880;BME280;25887;30.194;-97.880;2023-05-29T13:06:35;98408.47;;;25.38;57.68
38880;BME280;25887;30.194;-97.880;2023-05-29T13:09:19;98411.00;;;25.40;57.57
38880;BME280;25887;30.194;-97.880;2023-05-29T13:11:46;98408.47;;;25.38;57.65
38880;BME280;25887;30.194;-97.880;2023-05-29T13:14:12;98409.41;;;25.37;57.74
38880;BME280;25887;30.194;-97.880;2023-05-29T13:16:40;98408.47;;;25.38;58.01